Pattingham, United Kingdom
Current Conditions -  °F | °C
As of 11:50 PM on Wednesday 26 Nov 2014 (Local Time) from EGOS Reporting Station
Haze Haze  
Wind Chill: 45°   Ceiling: 600
Heat Index: 45°   Visibility: 0.68mi
Dew Point: 43°   Wind: 2mph
Humidity: 93%   Direction: 10°N
Pressure: 29.74"   Gusts: NA
Location:  52.59°N, 2.27°W
Report Text: EGOS 262350Z AUTO 01002KT 1100 BR OVC006/// 07/06 Q1007
Loading
Personal Weather Stations






























Interactive Weather Map New forecast layout! Learn more

10-Day Weather Forecast

Advertisements
Track Severe Weather on mobile